sensor_id;sensor_type;location;lat;lon;timestamp;P1;durP1;ratioP1;P2;durP2;ratioP2
18228;SDS011;9239;50.932;3.142;2022-08-21T00:02:26;4.82;;;3.28;;
18228;SDS011;9239;50.932;3.142;2022-08-21T00:04:54;5.40;;;3.00;;
18228;SDS011;9239;50.932;3.142;2022-08-21T00:07:22;5.85;;;2.50;;
18228;SDS011;9239;50.932;3.142;2022-08-21T00:09:50;7.65;;;3.65;;
18228;SDS011;9239;50.932;3.142;2022-08-21T00:12:17;3.95;;;2.38;;
18228;SDS011;9239;50.932;3.142;2022-08-21T00:14:44;5.28;;;2.80;;
18228;SDS011;9239;50.932;3.142;2022-08-21T00:17:11;6.95;;;3.15;;
18228;SDS011;9239;50.932;3.142;2022-08-21T00:19:38;5.65;;;2.88;;
18228;SDS011;9239;50.932;3.142;2022-08-21T00:22:05;6.03;;;2.95;;
18228;SDS011;9239;50.932;3.142;2022-08-21T00:24:34;6.50;;;3.15;;
18228;SDS011;9239;50.932;3.142;2022-08-21T00:27:01;7.03;;;2.95;;
18228;SDS011;9239;50.932;3.142;2022-08-21T00:29:28;3.97;;;2.60;;
18228;SDS011;9239;50.932;3.142;2022-08-21T00:31:55;5.97;;;2.60;;
18228;SDS011;9239;50.932;3.142;2022-08-21T00:34:22;4.68;;;2.50;;
18228;SDS011;9239;50.932;3.142;2022-08-21T00:36:49;4.72;;;2.40;;
18228;SDS011;9239;50.932;3.142;2022-08-21T00:39:16;5.88;;;2.50;;
18228;SDS011;9239;50.932;3.142;2022-08-21T00:41:44;8.10;;;2.67;;
18228;SDS011;9239;50.932;3.142;2022-08-21T00:44:12;8.73;;;2.85;;
18228;SDS011;9239;50.932;3.142;2022-08-21T00:46:41;8.05;;;2.83;;
18228;SDS011;9239;50.932;3.142;2022-08-21T00:49:09;6.20;;;2.85;;
18228;SDS011;9239;50.932;3.142;2022-08-21T00:51:39;6.22;;;2.72;;
18228;SDS011;9239;50.932;3.142;2022-08-21T00:54:12;3.50;;;2.50;;
18228;SDS011;9239;50.932;3.142;2022-08-21T00:56:41;4.47;;;2.55;;
18228;SDS011;9239;50.932;3.142;2022-08-21T00:59:09;9.27;;;2.60;;
18228;SDS011;9239;50.932;3.142;2022-08-21T01:01:36;5.57;;;2.50;;
18228;SDS011;9239;50.932;3.142;2022-08-21T01:04:05;6.43;;;2.80;;
18228;SDS011;9239;50.932;3.142;2022-08-21T01:06:32;3.83;;;2.25;;
18228;SDS011;9239;50.932;3.142;2022-08-21T01:09:00;4.90;;;2.20;;
18228;SDS011;9239;50.932;3.142;2022-08-21T01:11:27;4.20;;;2.72;;
18228;SDS011;9239;50.932;3.142;2022-08-21T01:13:54;5.43;;;2.38;;
18228;SDS011;9239;50.932;3.142;2022-08-21T01:16:22;4.68;;;2.78;;
18228;SDS011;9239;50.932;3.142;2022-08-21T01:18:50;5.80;;;2.92;;
18228;SDS011;9239;50.932;3.142;2022-08-21T01:21:21;5.57;;;2.58;;
18228;SDS011;9239;50.932;3.142;2022-08-21T01:23:50;7.25;;;3.05;;
18228;SDS011;9239;50.932;3.142;2022-08-21T01:26:20;4.90;;;2.95;;
18228;SDS011;9239;50.932;3.142;2022-08-21T01:28:51;4.38;;;2.55;;
18228;SDS011;9239;50.932;3.142;2022-08-21T01:31:23;5.20;;;2.03;;
18228;SDS011;9239;50.932;3.142;2022-08-21T01:33:52;6.40;;;2.17;;
18228;SDS011;9239;50.932;3.142;2022-08-21T01:36:21;4.32;;;2.63;;
18228;SDS011;9239;50.932;3.142;2022-08-21T01:38:49;4.25;;;2.30;;
18228;SDS011;9239;50.932;3.142;2022-08-21T01:41:16;4.30;;;2.40;;
18228;SDS011;9239;50.932;3.142;2022-08-21T01:43:43;7.72;;;2.83;;
18228;SDS011;9239;50.932;3.142;2022-08-21T01:46:11;6.65;;;2.78;;
18228;SDS011;9239;50.932;3.142;2022-08-21T01:48:38;5.75;;;2.63;;
18228;SDS011;9239;50.932;3.142;2022-08-21T01:51:06;3.30;;;2.25;;
18228;SDS011;9239;50.932;3.142;2022-08-21T01:53:35;6.38;;;2.58;;
18228;SDS011;9239;50.932;3.142;2022-08-21T01:56:02;6.00;;;3.30;;
18228;SDS011;9239;50.932;3.142;2022-08-21T01:58:31;4.32;;;2.63;;
18228;SDS011;9239;50.932;3.142;2022-08-21T02:00:59;6.57;;;2.92;;
18228;SDS011;9239;50.932;3.142;2022-08-21T02:03:26;4.05;;;2.75;;
18228;SDS011;9239;50.932;3.142;2022-08-21T02:05:53;6.30;;;2.75;;
18228;SDS011;9239;50.932;3.142;2022-08-21T02:08:20;5.18;;;2.95;;
18228;SDS011;9239;50.932;3.142;2022-08-21T02:10:50;7.47;;;3.10;;
18228;SDS011;9239;50.932;3.142;2022-08-21T02:13:17;6.90;;;2.83;;
18228;SDS011;9239;50.932;3.142;2022-08-21T02:15:45;5.97;;;2.83;;
18228;SDS011;9239;50.932;3.142;2022-08-21T02:18:12;9.68;;;3.08;;
18228;SDS011;9239;50.932;3.142;2022-08-21T02:20:40;5.43;;;3.67;;
18228;SDS011;9239;50.932;3.142;2022-08-21T02:23:09;7.10;;;2.60;;
18228;SDS011;9239;50.932;3.142;2022-08-21T02:25:38;4.63;;;3.00;;
18228;SDS011;9239;50.932;3.142;2022-08-21T02:28:07;4.75;;;2.90;;
18228;SDS011;9239;50.932;3.142;2022-08-21T02:30:38;7.05;;;2.65;;
18228;SDS011;9239;50.932;3.142;2022-08-21T02:33:07;11.60;;;3.85;;
18228;SDS011;9239;50.932;3.142;2022-08-21T02:35:36;5.50;;;3.00;;
18228;SDS011;9239;50.932;3.142;2022-08-21T02:38:04;5.82;;;2.70;;
18228;SDS011;9239;50.932;3.142;2022-08-21T02:40:34;6.47;;;2.92;;
18228;SDS011;9239;50.932;3.142;2022-08-21T02:43:05;6.00;;;3.17;;
18228;SDS011;9239;50.932;3.142;2022-08-21T02:45:34;4.63;;;3.13;;
18228;SDS011;9239;50.932;3.142;2022-08-21T02:48:03;6.03;;;3.00;;
18228;SDS011;9239;50.932;3.142;2022-08-21T02:50:32;8.07;;;3.30;;
18228;SDS011;9239;50.932;3.142;2022-08-21T02:53:01;6.47;;;3.22;;
18228;SDS011;9239;50.932;3.142;2022-08-21T02:55:30;6.82;;;3.30;;
18228;SDS011;9239;50.932;3.142;2022-08-21T02:57:58;6.72;;;3.42;;
18228;SDS011;9239;50.932;3.142;2022-08-21T03:00:29;6.30;;;3.17;;
18228;SDS011;9239;50.932;3.142;2022-08-21T03:02:58;5.45;;;2.97;;
18228;SDS011;9239;50.932;3.142;2022-08-21T03:05:26;4.45;;;3.45;;
18228;SDS011;9239;50.932;3.142;2022-08-21T03:07:56;7.97;;;4.10;;
18228;SDS011;9239;50.932;3.142;2022-08-21T03:10:24;3.92;;;2.90;;
18228;SDS011;9239;50.932;3.142;2022-08-21T03:12:51;6.55;;;3.05;;
18228;SDS011;9239;50.932;3.142;2022-08-21T03:15:20;6.93;;;3.70;;
18228;SDS011;9239;50.932;3.142;2022-08-21T03:17:50;5.78;;;3.38;;
18228;SDS011;9239;50.932;3.142;2022-08-21T03:20:19;6.57;;;3.38;;
18228;SDS011;9239;50.932;3.142;2022-08-21T03:22:48;7.82;;;3.33;;
18228;SDS011;9239;50.932;3.142;2022-08-21T03:25:16;5.78;;;3.40;;
18228;SDS011;9239;50.932;3.142;2022-08-21T03:27:43;8.60;;;3.42;;
18228;SDS011;9239;50.932;3.142;2022-08-21T03:30:10;5.97;;;3.33;;
18228;SDS011;9239;50.932;3.142;2022-08-21T03:32:38;5.75;;;3.30;;
18228;SDS011;9239;50.932;3.142;2022-08-21T03:35:07;7.90;;;3.53;;
18228;SDS011;9239;50.932;3.142;2022-08-21T03:37:35;7.72;;;3.42;;
18228;SDS011;9239;50.932;3.142;2022-08-21T03:40:02;6.68;;;3.60;;
18228;SDS011;9239;50.932;3.142;2022-08-21T03:42:29;7.13;;;3.50;;
18228;SDS011;9239;50.932;3.142;2022-08-21T03:44:56;7.05;;;3.90;;
18228;SDS011;9239;50.932;3.142;2022-08-21T03:47:23;7.82;;;3.60;;
18228;SDS011;9239;50.932;3.142;2022-08-21T03:49:51;7.40;;;4.22;;
18228;SDS011;9239;50.932;3.142;2022-08-21T03:52:19;7.60;;;3.47;;
18228;SDS011;9239;50.932;3.142;2022-08-21T03:54:48;8.73;;;4.38;;
18228;SDS011;9239;50.932;3.142;2022-08-21T03:57:15;6.25;;;3.83;;
18228;SDS011;9239;50.932;3.142;2022-08-21T03:59:42;8.02;;;3.58;;
18228;SDS011;9239;50.932;3.142;2022-08-21T04:02:09;6.38;;;3.38;;
18228;SDS011;9239;50.932;3.142;2022-08-21T04:04:37;8.02;;;3.65;;
18228;SDS011;9239;50.932;3.142;2022-08-21T04:07:03;6.00;;;3.67;;
18228;SDS011;9239;50.932;3.142;2022-08-21T04:09:32;5.43;;;3.33;;
18228;SDS011;9239;50.932;3.142;2022-08-21T04:11:59;7.97;;;3.88;;
18228;SDS011;9239;50.932;3.142;2022-08-21T04:14:26;7.45;;;3.40;;
18228;SDS011;9239;50.932;3.142;2022-08-21T04:16:53;7.57;;;4.20;;
18228;SDS011;9239;50.932;3.142;2022-08-21T04:19:20;7.82;;;3.70;;
18228;SDS011;9239;50.932;3.142;2022-08-21T04:21:48;8.10;;;3.67;;
18228;SDS011;9239;50.932;3.142;2022-08-21T04:24:15;7.63;;;4.10;;
18228;SDS011;9239;50.932;3.142;2022-08-21T04:26:45;6.80;;;3.92;;
18228;SDS011;9239;50.932;3.142;2022-08-21T04:29:12;6.17;;;3.70;;
18228;SDS011;9239;50.932;3.142;2022-08-21T04:31:39;6.17;;;3.73;;
18228;SDS011;9239;50.932;3.142;2022-08-21T04:34:08;8.43;;;3.60;;
18228;SDS011;9239;50.932;3.142;2022-08-21T04:36:35;8.43;;;4.30;;
18228;SDS011;9239;50.932;3.142;2022-08-21T04:39:02;7.70;;;4.70;;
18228;SDS011;9239;50.932;3.142;2022-08-21T04:41:30;10.47;;;4.10;;
18228;SDS011;9239;50.932;3.142;2022-08-21T04:43:59;10.70;;;4.17;;
18228;SDS011;9239;50.932;3.142;2022-08-21T04:46:26;7.07;;;3.80;;
18228;SDS011;9239;50.932;3.142;2022-08-21T04:48:53;10.50;;;3.77;;
18228;SDS011;9239;50.932;3.142;2022-08-21T04:51:21;6.68;;;3.90;;
18228;SDS011;9239;50.932;3.142;2022-08-21T04:53:52;5.87;;;3.97;;
18228;SDS011;9239;50.932;3.142;2022-08-21T04:56:24;8.45;;;3.75;;
18228;SDS011;9239;50.932;3.142;2022-08-21T04:58:53;9.98;;;3.92;;
18228;SDS011;9239;50.932;3.142;2022-08-21T05:01:25;13.70;;;4.32;;
18228;SDS011;9239;50.932;3.142;2022-08-21T05:03:55;5.80;;;4.00;;
18228;SDS011;9239;50.932;3.142;2022-08-21T05:06:25;10.47;;;4.37;;
18228;SDS011;9239;50.932;3.142;2022-08-21T05:08:54;6.32;;;4.00;;
18228;SDS011;9239;50.932;3.142;2022-08-21T05:11:22;6.78;;;3.97;;
18228;SDS011;9239;50.932;3.142;2022-08-21T05:13:50;8.15;;;4.10;;
18228;SDS011;9239;50.932;3.142;2022-08-21T05:16:17;7.60;;;4.00;;
18228;SDS011;9239;50.932;3.142;2022-08-21T05:18:45;6.63;;;3.83;;
18228;SDS011;9239;50.932;3.142;2022-08-21T05:21:12;8.00;;;4.00;;
18228;SDS011;9239;50.932;3.142;2022-08-21T05:23:39;5.45;;;4.10;;
18228;SDS011;9239;50.932;3.142;2022-08-21T05:26:06;7.20;;;4.20;;
18228;SDS011;9239;50.932;3.142;2022-08-21T05:28:33;7.88;;;3.67;;
18228;SDS011;9239;50.932;3.142;2022-08-21T05:31:00;8.00;;;3.65;;
18228;SDS011;9239;50.932;3.142;2022-08-21T05:33:27;12.23;;;4.50;;
18228;SDS011;9239;50.932;3.142;2022-08-21T05:35:55;4.50;;;3.58;;
18228;SDS011;9239;50.932;3.142;2022-08-21T05:38:22;5.50;;;3.88;;
18228;SDS011;9239;50.932;3.142;2022-08-21T05:40:50;4.55;;;3.20;;
18228;SDS011;9239;50.932;3.142;2022-08-21T05:43:17;5.47;;;3.47;;
18228;SDS011;9239;50.932;3.142;2022-08-21T05:45:46;4.95;;;3.35;;
18228;SDS011;9239;50.932;3.142;2022-08-21T05:48:15;7.05;;;3.35;;
18228;SDS011;9239;50.932;3.142;2022-08-21T05:50:44;6.20;;;3.45;;
18228;SDS011;9239;50.932;3.142;2022-08-21T05:53:14;5.70;;;3.08;;
18228;SDS011;9239;50.932;3.142;2022-08-21T05:55:43;4.53;;;3.13;;
18228;SDS011;9239;50.932;3.142;2022-08-21T05:58:10;7.35;;;3.80;;
18228;SDS011;9239;50.932;3.142;2022-08-21T06:00:37;5.95;;;3.08;;
18228;SDS011;9239;50.932;3.142;2022-08-21T06:03:04;9.82;;;4.35;;
18228;SDS011;9239;50.932;3.142;2022-08-21T06:05:37;8.88;;;4.15;;
18228;SDS011;9239;50.932;3.142;2022-08-21T06:08:04;7.03;;;3.72;;
18228;SDS011;9239;50.932;3.142;2022-08-21T06:10:32;4.95;;;3.65;;
18228;SDS011;9239;50.932;3.142;2022-08-21T06:12:59;6.72;;;3.75;;
18228;SDS011;9239;50.932;3.142;2022-08-21T06:15:27;8.35;;;3.95;;
18228;SDS011;9239;50.932;3.142;2022-08-21T06:17:54;5.90;;;3.50;;
18228;SDS011;9239;50.932;3.142;2022-08-21T06:20:21;6.70;;;3.67;;
18228;SDS011;9239;50.932;3.142;2022-08-21T06:22:49;7.40;;;4.20;;
18228;SDS011;9239;50.932;3.142;2022-08-21T06:25:16;8.55;;;4.15;;
18228;SDS011;9239;50.932;3.142;2022-08-21T06:27:44;8.93;;;4.30;;
18228;SDS011;9239;50.932;3.142;2022-08-21T06:30:12;6.15;;;3.53;;
18228;SDS011;9239;50.932;3.142;2022-08-21T06:32:39;6.40;;;4.15;;
18228;SDS011;9239;50.932;3.142;2022-08-21T06:35:06;6.38;;;3.85;;
18228;SDS011;9239;50.932;3.142;2022-08-21T06:37:33;6.63;;;4.15;;
18228;SDS011;9239;50.932;3.142;2022-08-21T06:40:00;7.57;;;4.18;;
18228;SDS011;9239;50.932;3.142;2022-08-21T06:42:28;7.47;;;4.68;;
18228;SDS011;9239;50.932;3.142;2022-08-21T06:44:57;7.43;;;3.75;;
18228;SDS011;9239;50.932;3.142;2022-08-21T06:47:24;8.35;;;3.67;;
18228;SDS011;9239;50.932;3.142;2022-08-21T06:49:51;5.80;;;3.30;;
18228;SDS011;9239;50.932;3.142;2022-08-21T06:52:18;10.20;;;4.07;;
18228;SDS011;9239;50.932;3.142;2022-08-21T06:54:45;7.85;;;4.53;;
18228;SDS011;9239;50.932;3.142;2022-08-21T06:57:12;8.13;;;3.97;;
18228;SDS011;9239;50.932;3.142;2022-08-21T06:59:39;7.53;;;4.10;;
18228;SDS011;9239;50.932;3.142;2022-08-21T07:02:07;9.18;;;4.40;;
18228;SDS011;9239;50.932;3.142;2022-08-21T07:04:34;4.80;;;3.80;;
18228;SDS011;9239;50.932;3.142;2022-08-21T07:07:01;7.72;;;4.00;;
18228;SDS011;9239;50.932;3.142;2022-08-21T07:09:28;7.43;;;4.53;;
18228;SDS011;9239;50.932;3.142;2022-08-21T07:11:55;7.75;;;4.55;;
18228;SDS011;9239;50.932;3.142;2022-08-21T07:14:23;5.53;;;4.20;;
18228;SDS011;9239;50.932;3.142;2022-08-21T07:16:50;7.85;;;4.03;;
18228;SDS011;9239;50.932;3.142;2022-08-21T07:19:18;11.60;;;4.80;;
18228;SDS011;9239;50.932;3.142;2022-08-21T07:21:46;7.32;;;3.85;;
18228;SDS011;9239;50.932;3.142;2022-08-21T07:24:13;8.65;;;4.07;;
18228;SDS011;9239;50.932;3.142;2022-08-21T07:26:40;8.43;;;4.40;;
18228;SDS011;9239;50.932;3.142;2022-08-21T07:29:07;10.43;;;4.22;;
18228;SDS011;9239;50.932;3.142;2022-08-21T07:31:34;6.70;;;4.15;;
18228;SDS011;9239;50.932;3.142;2022-08-21T07:34:01;10.48;;;4.88;;
18228;SDS011;9239;50.932;3.142;2022-08-21T07:36:29;7.70;;;4.70;;
18228;SDS011;9239;50.932;3.142;2022-08-21T07:38:56;9.98;;;4.35;;
18228;SDS011;9239;50.932;3.142;2022-08-21T07:41:24;8.90;;;4.30;;
18228;SDS011;9239;50.932;3.142;2022-08-21T07:43:53;7.75;;;4.53;;
18228;SDS011;9239;50.932;3.142;2022-08-21T07:46:20;9.63;;;4.65;;
18228;SDS011;9239;50.932;3.142;2022-08-21T07:48:47;9.65;;;4.80;;
18228;SDS011;9239;50.932;3.142;2022-08-21T07:51:15;8.55;;;4.65;;
18228;SDS011;9239;50.932;3.142;2022-08-21T07:53:48;6.38;;;3.38;;
18228;SDS011;9239;50.932;3.142;2022-08-21T07:56:17;6.93;;;4.32;;
18228;SDS011;9239;50.932;3.142;2022-08-21T07:58:44;10.85;;;4.38;;
18228;SDS011;9239;50.932;3.142;2022-08-21T08:01:12;8.02;;;4.10;;
18228;SDS011;9239;50.932;3.142;2022-08-21T08:03:40;6.90;;;4.10;;
18228;SDS011;9239;50.932;3.142;2022-08-21T08:06:07;6.05;;;3.35;;
18228;SDS011;9239;50.932;3.142;2022-08-21T08:08:37;7.28;;;3.40;;
18228;SDS011;9239;50.932;3.142;2022-08-21T08:11:07;9.68;;;3.90;;
18228;SDS011;9239;50.932;3.142;2022-08-21T08:13:37;9.98;;;3.80;;
18228;SDS011;9239;50.932;3.142;2022-08-21T08:16:05;8.55;;;3.47;;
18228;SDS011;9239;50.932;3.142;2022-08-21T08:18:33;5.47;;;2.60;;
18228;SDS011;9239;50.932;3.142;2022-08-21T08:21:01;9.18;;;2.67;;
18228;SDS011;9239;50.932;3.142;2022-08-21T08:23:27;8.88;;;2.97;;
18228;SDS011;9239;50.932;3.142;2022-08-21T08:25:55;6.32;;;3.00;;
18228;SDS011;9239;50.932;3.142;2022-08-21T08:28:24;5.90;;;2.58;;
18228;SDS011;9239;50.932;3.142;2022-08-21T08:30:52;6.63;;;2.63;;
18228;SDS011;9239;50.932;3.142;2022-08-21T08:33:19;6.30;;;2.63;;
18228;SDS011;9239;50.932;3.142;2022-08-21T08:35:47;8.68;;;2.47;;
18228;SDS011;9239;50.932;3.142;2022-08-21T08:38:15;9.13;;;2.55;;
18228;SDS011;9239;50.932;3.142;2022-08-21T08:40:45;6.50;;;2.60;;
18228;SDS011;9239;50.932;3.142;2022-08-21T08:43:18;9.93;;;3.33;;
18228;SDS011;9239;50.932;3.142;2022-08-21T08:45:48;8.18;;;2.42;;
18228;SDS011;9239;50.932;3.142;2022-08-21T08:51:08;4.68;;;2.08;;
18228;SDS011;9239;50.932;3.142;2022-08-21T08:53:44;6.60;;;1.98;;
18228;SDS011;9239;50.932;3.142;2022-08-21T08:56:15;3.13;;;2.05;;
18228;SDS011;9239;50.932;3.142;2022-08-21T08:58:52;8.85;;;3.28;;
18228;SDS011;9239;50.932;3.142;2022-08-21T09:01:22;6.47;;;2.60;;
18228;SDS011;9239;50.932;3.142;2022-08-21T09:03:49;6.65;;;2.40;;
18228;SDS011;9239;50.932;3.142;2022-08-21T09:09:11;5.15;;;2.00;;
18228;SDS011;9239;50.932;3.142;2022-08-21T09:11:50;6.00;;;2.38;;
18228;SDS011;9239;50.932;3.142;2022-08-21T09:14:24;5.18;;;2.45;;
18228;SDS011;9239;50.932;3.142;2022-08-21T09:17:04;4.70;;;2.15;;
18228;SDS011;9239;50.932;3.142;2022-08-21T09:19:44;10.48;;;2.28;;
18228;SDS011;9239;50.932;3.142;2022-08-21T09:22:23;7.70;;;2.03;;
18228;SDS011;9239;50.932;3.142;2022-08-21T09:24:59;5.50;;;2.33;;
18228;SDS011;9239;50.932;3.142;2022-08-21T09:27:35;7.97;;;3.03;;
18228;SDS011;9239;50.932;3.142;2022-08-21T09:30:03;8.68;;;2.65;;
18228;SDS011;9239;50.932;3.142;2022-08-21T09:32:35;11.05;;;2.97;;
18228;SDS011;9239;50.932;3.142;2022-08-21T09:35:06;8.13;;;2.75;;
18228;SDS011;9239;50.932;3.142;2022-08-21T09:37:44;5.90;;;2.40;;
18228;SDS011;9239;50.932;3.142;2022-08-21T09:40:19;4.18;;;2.38;;
18228;SDS011;9239;50.932;3.142;2022-08-21T09:43:01;6.90;;;2.22;;
18228;SDS011;9239;50.932;3.142;2022-08-21T09:45:29;9.23;;;2.72;;
18228;SDS011;9239;50.932;3.142;2022-08-21T09:48:09;6.25;;;2.30;;
18228;SDS011;9239;50.932;3.142;2022-08-21T09:50:39;5.68;;;2.20;;
18228;SDS011;9239;50.932;3.142;2022-08-21T09:53:14;6.55;;;2.28;;
18228;SDS011;9239;50.932;3.142;2022-08-21T09:55:47;6.70;;;2.20;;
18228;SDS011;9239;50.932;3.142;2022-08-21T09:58:35;4.95;;;2.60;;
18228;SDS011;9239;50.932;3.142;2022-08-21T10:01:04;8.73;;;2.42;;
18228;SDS011;9239;50.932;3.142;2022-08-21T10:03:34;5.90;;;2.33;;
18228;SDS011;9239;50.932;3.142;2022-08-21T10:06:03;5.40;;;2.17;;
18228;SDS011;9239;50.932;3.142;2022-08-21T10:08:34;6.40;;;2.50;;
18228;SDS011;9239;50.932;3.142;2022-08-21T10:11:04;9.13;;;2.08;;
18228;SDS011;9239;50.932;3.142;2022-08-21T10:13:40;9.07;;;2.30;;
18228;SDS011;9239;50.932;3.142;2022-08-21T10:16:21;8.25;;;2.20;;
18228;SDS011;9239;50.932;3.142;2022-08-21T10:19:05;6.78;;;2.20;;
18228;SDS011;9239;50.932;3.142;2022-08-21T10:21:42;6.50;;;2.00;;
18228;SDS011;9239;50.932;3.142;2022-08-21T10:24:19;5.65;;;2.40;;
18228;SDS011;9239;50.932;3.142;2022-08-21T10:26:54;8.65;;;2.20;;
18228;SDS011;9239;50.932;3.142;2022-08-21T10:29:34;7.40;;;2.10;;
18228;SDS011;9239;50.932;3.142;2022-08-21T10:32:12;5.57;;;2.17;;
18228;SDS011;9239;50.932;3.142;2022-08-21T10:34:51;7.38;;;2.17;;
18228;SDS011;9239;50.932;3.142;2022-08-21T10:37:26;5.05;;;1.98;;
18228;SDS011;9239;50.932;3.142;2022-08-21T10:40:10;6.45;;;2.58;;
18228;SDS011;9239;50.932;3.142;2022-08-21T10:42:48;8.02;;;2.70;;
18228;SDS011;9239;50.932;3.142;2022-08-21T10:45:25;5.32;;;2.38;;
18228;SDS011;9239;50.932;3.142;2022-08-21T10:48:05;7.07;;;2.42;;
18228;SDS011;9239;50.932;3.142;2022-08-21T10:50:38;7.07;;;2.35;;
18228;SDS011;9239;50.932;3.142;2022-08-21T10:53:11;4.43;;;1.90;;
18228;SDS011;9239;50.932;3.142;2022-08-21T10:55:48;8.48;;;2.55;;
18228;SDS011;9239;50.932;3.142;2022-08-21T10:58:23;7.40;;;2.30;;
18228;SDS011;9239;50.932;3.142;2022-08-21T11:00:55;6.47;;;2.40;;
18228;SDS011;9239;50.932;3.142;2022-08-21T11:03:27;7.93;;;2.95;;
18228;SDS011;9239;50.932;3.142;2022-08-21T11:06:02;7.07;;;2.20;;
18228;SDS011;9239;50.932;3.142;2022-08-21T11:08:35;6.28;;;2.17;;
18228;SDS011;9239;50.932;3.142;2022-08-21T11:11:06;8.95;;;2.40;;
18228;SDS011;9239;50.932;3.142;2022-08-21T11:13:37;6.38;;;2.25;;
18228;SDS011;9239;50.932;3.142;2022-08-21T11:16:10;4.57;;;2.08;;
18228;SDS011;9239;50.932;3.142;2022-08-21T11:18:45;7.68;;;2.53;;
18228;SDS011;9239;50.932;3.142;2022-08-21T11:21:24;4.55;;;2.10;;
18228;SDS011;9239;50.932;3.142;2022-08-21T11:24:03;5.90;;;1.98;;
18228;SDS011;9239;50.932;3.142;2022-08-21T11:26:50;5.25;;;2.30;;
18228;SDS011;9239;50.932;3.142;2022-08-21T11:29:23;4.20;;;2.20;;
18228;SDS011;9239;50.932;3.142;2022-08-21T11:31:58;6.68;;;2.45;;
18228;SDS011;9239;50.932;3.142;2022-08-21T11:34:38;8.95;;;2.55;;
18228;SDS011;9239;50.932;3.142;2022-08-21T11:37:17;8.30;;;2.15;;
18228;SDS011;9239;50.932;3.142;2022-08-21T11:39:54;6.32;;;2.00;;
18228;SDS011;9239;50.932;3.142;2022-08-21T11:42:29;10.27;;;3.08;;
18228;SDS011;9239;50.932;3.142;2022-08-21T11:45:10;4.43;;;2.55;;
18228;SDS011;9239;50.932;3.142;2022-08-21T11:47:52;6.22;;;2.05;;
18228;SDS011;9239;50.932;3.142;2022-08-21T11:50:25;5.53;;;2.47;;
18228;SDS011;9239;50.932;3.142;2022-08-21T11:52:56;5.53;;;2.08;;
18228;SDS011;9239;50.932;3.142;2022-08-21T11:55:29;9.15;;;2.50;;
18228;SDS011;9239;50.932;3.142;2022-08-21T11:58:06;6.45;;;2.05;;
18228;SDS011;9239;50.932;3.142;2022-08-21T12:00:40;5.13;;;2.10;;
18228;SDS011;9239;50.932;3.142;2022-08-21T12:03:14;7.18;;;3.53;;
18228;SDS011;9239;50.932;3.142;2022-08-21T12:05:51;7.75;;;2.47;;
18228;SDS011;9239;50.932;3.142;2022-08-21T12:08:29;8.30;;;6.15;;
18228;SDS011;9239;50.932;3.142;2022-08-21T12:11:03;11.30;;;5.95;;
18228;SDS011;9239;50.932;3.142;2022-08-21T12:13:33;7.93;;;4.93;;
18228;SDS011;9239;50.932;3.142;2022-08-21T12:16:06;6.47;;;3.00;;
18228;SDS011;9239;50.932;3.142;2022-08-21T12:18:35;8.80;;;4.35;;
18228;SDS011;9239;50.932;3.142;2022-08-21T12:21:04;6.30;;;3.28;;
18228;SDS011;9239;50.932;3.142;2022-08-21T12:23:46;10.43;;;2.58;;
18228;SDS011;9239;50.932;3.142;2022-08-21T12:29:04;6.68;;;2.70;;
18228;SDS011;9239;50.932;3.142;2022-08-21T12:31:57;5.78;;;2.28;;
18228;SDS011;9239;50.932;3.142;2022-08-21T12:34:29;5.32;;;1.92;;
18228;SDS011;9239;50.932;3.142;2022-08-21T12:37:01;3.75;;;2.22;;
18228;SDS011;9239;50.932;3.142;2022-08-21T12:39:32;7.03;;;2.80;;
18228;SDS011;9239;50.932;3.142;2022-08-21T12:42:04;6.38;;;2.40;;
18228;SDS011;9239;50.932;3.142;2022-08-21T12:44:35;8.18;;;2.42;;
18228;SDS011;9239;50.932;3.142;2022-08-21T12:47:12;5.40;;;2.50;;
18228;SDS011;9239;50.932;3.142;2022-08-21T12:49:43;6.03;;;2.78;;
18228;SDS011;9239;50.932;3.142;2022-08-21T12:52:19;7.07;;;2.42;;
18228;SDS011;9239;50.932;3.142;2022-08-21T12:54:49;5.13;;;2.50;;
18228;SDS011;9239;50.932;3.142;2022-08-21T12:57:18;7.32;;;2.20;;
18228;SDS011;9239;50.932;3.142;2022-08-21T12:59:50;6.45;;;2.55;;
18228;SDS011;9239;50.932;3.142;2022-08-21T13:02:19;6.65;;;2.30;;
18228;SDS011;9239;50.932;3.142;2022-08-21T13:04:50;5.35;;;2.10;;
18228;SDS011;9239;50.932;3.142;2022-08-21T13:07:22;6.30;;;2.47;;
18228;SDS011;9239;50.932;3.142;2022-08-21T13:09:55;6.22;;;2.55;;
18228;SDS011;9239;50.932;3.142;2022-08-21T13:12:24;6.53;;;2.47;;
18228;SDS011;9239;50.932;3.142;2022-08-21T13:14:55;6.00;;;2.15;;
18228;SDS011;9239;50.932;3.142;2022-08-21T13:17:24;5.82;;;1.90;;
18228;SDS011;9239;50.932;3.142;2022-08-21T13:19:53;6.75;;;2.42;;
18228;SDS011;9239;50.932;3.142;2022-08-21T13:22:25;5.90;;;2.63;;
18228;SDS011;9239;50.932;3.142;2022-08-21T13:24:56;7.70;;;2.53;;
18228;SDS011;9239;50.932;3.142;2022-08-21T13:27:24;4.80;;;2.22;;
18228;SDS011;9239;50.932;3.142;2022-08-21T13:30:06;4.78;;;2.40;;
18228;SDS011;9239;50.932;3.142;2022-08-21T13:32:37;6.43;;;2.03;;
18228;SDS011;9239;50.932;3.142;2022-08-21T13:35:19;4.25;;;2.80;;
18228;SDS011;9239;50.932;3.142;2022-08-21T13:37:48;5.97;;;2.30;;
18228;SDS011;9239;50.932;3.142;2022-08-21T13:40:18;8.52;;;2.53;;
18228;SDS011;9239;50.932;3.142;2022-08-21T13:42:49;4.65;;;1.88;;
18228;SDS011;9239;50.932;3.142;2022-08-21T13:45:20;6.50;;;2.10;;
18228;SDS011;9239;50.932;3.142;2022-08-21T13:47:50;5.75;;;1.90;;
18228;SDS011;9239;50.932;3.142;2022-08-21T13:50:18;7.35;;;2.30;;
18228;SDS011;9239;50.932;3.142;2022-08-21T13:52:55;3.53;;;2.03;;
18228;SDS011;9239;50.932;3.142;2022-08-21T13:55:35;5.13;;;2.20;;
18228;SDS011;9239;50.932;3.142;2022-08-21T13:58:04;5.97;;;2.47;;
18228;SDS011;9239;50.932;3.142;2022-08-21T14:00:33;5.07;;;2.25;;
18228;SDS011;9239;50.932;3.142;2022-08-21T14:03:04;8.82;;;2.25;;
18228;SDS011;9239;50.932;3.142;2022-08-21T14:05:34;8.00;;;3.15;;
18228;SDS011;9239;50.932;3.142;2022-08-21T14:08:04;5.88;;;2.17;;
18228;SDS011;9239;50.932;3.142;2022-08-21T14:10:37;5.35;;;2.28;;
18228;SDS011;9239;50.932;3.142;2022-08-21T14:13:26;5.35;;;2.30;;
18228;SDS011;9239;50.932;3.142;2022-08-21T14:15:57;4.90;;;2.10;;
18228;SDS011;9239;50.932;3.142;2022-08-21T14:18:26;7.15;;;2.20;;
18228;SDS011;9239;50.932;3.142;2022-08-21T14:21:03;5.43;;;2.30;;
18228;SDS011;9239;50.932;3.142;2022-08-21T14:23:31;8.35;;;2.38;;
18228;SDS011;9239;50.932;3.142;2022-08-21T14:26:00;5.13;;;2.15;;
18228;SDS011;9239;50.932;3.142;2022-08-21T14:28:31;5.40;;;2.25;;
18228;SDS011;9239;50.932;3.142;2022-08-21T14:31:10;5.10;;;2.65;;
18228;SDS011;9239;50.932;3.142;2022-08-21T14:33:39;6.70;;;2.17;;
18228;SDS011;9239;50.932;3.142;2022-08-21T14:36:06;7.93;;;2.53;;
18228;SDS011;9239;50.932;3.142;2022-08-21T14:38:34;5.57;;;2.60;;
18228;SDS011;9239;50.932;3.142;2022-08-21T14:41:06;6.35;;;2.28;;
18228;SDS011;9239;50.932;3.142;2022-08-21T14:43:40;5.43;;;2.47;;
18228;SDS011;9239;50.932;3.142;2022-08-21T14:46:09;9.88;;;2.72;;
18228;SDS011;9239;50.932;3.142;2022-08-21T14:48:37;6.78;;;2.40;;
18228;SDS011;9239;50.932;3.142;2022-08-21T14:51:04;4.72;;;2.20;;
18228;SDS011;9239;50.932;3.142;2022-08-21T14:53:31;5.45;;;2.20;;
18228;SDS011;9239;50.932;3.142;2022-08-21T14:55:58;4.82;;;2.00;;
18228;SDS011;9239;50.932;3.142;2022-08-21T14:58:33;6.00;;;2.28;;
18228;SDS011;9239;50.932;3.142;2022-08-21T15:01:02;6.10;;;2.65;;
18228;SDS011;9239;50.932;3.142;2022-08-21T15:03:30;5.95;;;3.15;;
18228;SDS011;9239;50.932;3.142;2022-08-21T15:05:58;4.85;;;2.28;;
18228;SDS011;9239;50.932;3.142;2022-08-21T15:08:25;6.65;;;2.00;;
18228;SDS011;9239;50.932;3.142;2022-08-21T15:10:52;3.97;;;1.77;;
18228;SDS011;9239;50.932;3.142;2022-08-21T15:13:20;8.23;;;2.33;;
18228;SDS011;9239;50.932;3.142;2022-08-21T15:15:49;5.07;;;2.20;;
18228;SDS011;9239;50.932;3.142;2022-08-21T15:18:18;6.82;;;2.65;;
18228;SDS011;9239;50.932;3.142;2022-08-21T15:20:45;7.15;;;2.45;;
18228;SDS011;9239;50.932;3.142;2022-08-21T15:23:12;7.82;;;2.22;;
18228;SDS011;9239;50.932;3.142;2022-08-21T15:25:39;5.63;;;2.05;;
18228;SDS011;9239;50.932;3.142;2022-08-21T15:28:07;5.93;;;2.47;;